sensor_id;sensor_type;location;lat;lon;timestamp;pressure;altitude;pressure_sealevel;temperature;humidity
56070;BME280;41944;52.078;-0.058;2023-02-18T00:00:17;101862.17;;;13.64;97.67
56070;BME280;41944;52.078;-0.058;2023-02-18T00:00:19;101862.45;;;13.64;97.73
56070;BME280;41944;52.078;-0.058;2023-02-18T00:02:47;101850.96;;;13.71;98.03
56070;BME280;41944;52.078;-0.058;2023-02-18T00:05:14;101857.38;;;13.68;98.58
56070;BME280;41944;52.078;-0.058;2023-02-18T00:07:41;101850.93;;;13.73;98.51
56070;BME280;41944;52.078;-0.058;2023-02-18T00:10:11;101845.44;;;13.62;99.11
56070;BME280;41944;52.078;-0.058;2023-02-18T00:12:39;101833.63;;;13.67;98.25
56070;BME280;41944;52.078;-0.058;2023-02-18T00:15:07;101837.03;;;13.58;99.02
56070;BME280;41944;52.078;-0.058;2023-02-18T00:17:34;101832.92;;;13.60;99.08
56070;BME280;41944;52.078;-0.058;2023-02-18T00:20:02;101833.39;;;13.59;98.77
56070;BME280;41944;52.078;-0.058;2023-02-18T00:22:29;101827.79;;;13.55;98.73
56070;BME280;41944;52.078;-0.058;2023-02-18T00:24:56;101830.93;;;13.50;99.08
56070;BME280;41944;52.078;-0.058;2023-02-18T00:27:23;101833.57;;;13.58;97.99
56070;BME280;41944;52.078;-0.058;2023-02-18T00:29:50;101834.80;;;13.55;97.49
56070;BME280;41944;52.078;-0.058;2023-02-18T00:32:17;101821.86;;;13.52;97.55
56070;BME280;41944;52.078;-0.058;2023-02-18T00:34:43;101822.63;;;13.54;97.67
56070;BME280;41944;52.078;-0.058;2023-02-18T00:37:11;101819.97;;;13.58;96.89
56070;BME280;41944;52.078;-0.058;2023-02-18T00:39:38;101813.51;;;13.63;96.36
56070;BME280;41944;52.078;-0.058;2023-02-18T00:42:05;101808.24;;;13.55;96.39
56070;BME280;41944;52.078;-0.058;2023-02-18T00:44:32;101809.88;;;13.59;95.74
56070;BME280;41944;52.078;-0.058;2023-02-18T00:46:59;101803.98;;;13.61;95.46
56070;BME280;41944;52.078;-0.058;2023-02-18T00:49:26;101809.87;;;13.69;94.43
56070;BME280;41944;52.078;-0.058;2023-02-18T00:51:52;101808.34;;;13.69;94.63
56070;BME280;41944;52.078;-0.058;2023-02-18T00:54:19;101818.30;;;13.74;93.60
56070;BME280;41944;52.078;-0.058;2023-02-18T00:56:46;101809.21;;;13.73;93.21
56070;BME280;41944;52.078;-0.058;2023-02-18T00:59:13;101804.43;;;13.71;93.02
56070;BME280;41944;52.078;-0.058;2023-02-18T01:01:41;101805.07;;;13.71;93.02
56070;BME280;41944;52.078;-0.058;2023-02-18T01:04:07;101799.61;;;13.70;92.68
56070;BME280;41944;52.078;-0.058;2023-02-18T01:06:34;101805.69;;;13.73;92.52
56070;BME280;41944;52.078;-0.058;2023-02-18T01:09:01;101805.79;;;13.75;91.71
56070;BME280;41944;52.078;-0.058;2023-02-18T01:11:28;101806.77;;;13.71;92.57
56070;BME280;41944;52.078;-0.058;2023-02-18T01:13:55;101801.21;;;13.71;91.29
56070;BME280;41944;52.078;-0.058;2023-02-18T01:16:22;101795.85;;;13.63;91.69
56070;BME280;41944;52.078;-0.058;2023-02-18T01:18:49;101805.29;;;13.64;91.36
56070;BME280;41944;52.078;-0.058;2023-02-18T01:21:16;101799.39;;;13.61;91.21
56070;BME280;41944;52.078;-0.058;2023-02-18T01:23:43;101800.16;;;13.65;90.90
56070;BME280;41944;52.078;-0.058;2023-02-18T01:26:11;101799.59;;;13.57;91.32
56070;BME280;41944;52.078;-0.058;2023-02-18T01:28:38;101809.36;;;13.56;90.66
56070;BME280;41944;52.078;-0.058;2023-02-18T01:31:07;101799.72;;;13.58;91.04
56070;BME280;41944;52.078;-0.058;2023-02-18T01:33:35;101813.92;;;13.52;90.52
56070;BME280;41944;52.078;-0.058;2023-02-18T01:36:03;101808.83;;;13.52;89.83
56070;BME280;41944;52.078;-0.058;2023-02-18T01:38:30;101804.69;;;13.38;89.71
56070;BME280;41944;52.078;-0.058;2023-02-18T01:40:57;101806.54;;;13.40;90.56
56070;BME280;41944;52.078;-0.058;2023-02-18T01:43:24;101798.25;;;13.46;89.22
56070;BME280;41944;52.078;-0.058;2023-02-18T01:45:59;101795.34;;;13.44;89.50
56070;BME280;41944;52.078;-0.058;2023-02-18T01:48:31;101797.47;;;13.42;88.68
56070;BME280;41944;52.078;-0.058;2023-02-18T01:51:02;101795.29;;;13.42;87.52
56070;BME280;41944;52.078;-0.058;2023-02-18T01:53:36;101784.00;;;13.38;88.46
56070;BME280;41944;52.078;-0.058;2023-02-18T01:56:07;101782.27;;;13.38;87.74
56070;BME280;41944;52.078;-0.058;2023-02-18T01:58:36;101781.05;;;13.40;86.86
56070;BME280;41944;52.078;-0.058;2023-02-18T02:01:04;101773.00;;;13.35;87.13
56070;BME280;41944;52.078;-0.058;2023-02-18T02:03:31;101755.59;;;13.34;85.68
56070;BME280;41944;52.078;-0.058;2023-02-18T02:05:58;101740.94;;;13.23;85.18
56070;BME280;41944;52.078;-0.058;2023-02-18T02:08:25;101742.54;;;13.27;84.51
56070;BME280;41944;52.078;-0.058;2023-02-18T02:11:06;101738.54;;;13.20;84.08
56070;BME280;41944;52.078;-0.058;2023-02-18T02:13:43;101738.85;;;13.11;84.79
56070;BME280;41944;52.078;-0.058;2023-02-18T02:16:19;101727.28;;;13.06;85.41
56070;BME280;41944;52.078;-0.058;2023-02-18T02:18:56;101725.74;;;13.00;84.64
56070;BME280;41944;52.078;-0.058;2023-02-18T02:21:45;101719.09;;;12.93;84.41
56070;BME280;41944;52.078;-0.058;2023-02-18T02:25:19;101712.26;;;12.82;85.43
56070;BME280;41944;52.078;-0.058;2023-02-18T02:28:09;101714.28;;;12.71;85.82
56070;BME280;41944;52.078;-0.058;2023-02-18T02:31:02;101712.13;;;12.65;85.57
56070;BME280;41944;52.078;-0.058;2023-02-18T02:33:51;101722.78;;;12.63;85.42
56070;BME280;41944;52.078;-0.058;2023-02-18T02:36:25;101724.38;;;12.58;86.57
56070;BME280;41944;52.078;-0.058;2023-02-18T02:39:07;101711.33;;;12.59;85.84
56070;BME280;41944;52.078;-0.058;2023-02-18T02:41:44;101712.25;;;12.49;86.69
56070;BME280;41944;52.078;-0.058;2023-02-18T02:44:19;101710.35;;;12.56;87.00
56070;BME280;41944;52.078;-0.058;2023-02-18T02:46:50;101711.32;;;12.60;86.89
56070;BME280;41944;52.078;-0.058;2023-02-18T02:49:27;101707.16;;;12.56;87.01
56070;BME280;41944;52.078;-0.058;2023-02-18T02:52:02;101713.29;;;12.63;86.69
56070;BME280;41944;52.078;-0.058;2023-02-18T02:54:32;101709.51;;;12.61;86.00
56070;BME280;41944;52.078;-0.058;2023-02-18T02:57:36;101707.86;;;12.56;86.41
56070;BME280;41944;52.078;-0.058;2023-02-18T03:00:10;101710.33;;;12.62;86.62
56070;BME280;41944;52.078;-0.058;2023-02-18T03:02:53;101707.38;;;12.68;86.04
56070;BME280;41944;52.078;-0.058;2023-02-18T03:05:30;101701.12;;;12.70;85.33
56070;BME280;41944;52.078;-0.058;2023-02-18T03:08:19;101696.62;;;12.72;85.35
56070;BME280;41944;52.078;-0.058;2023-02-18T03:10:55;101691.94;;;12.70;85.46
56070;BME280;41944;52.078;-0.058;2023-02-18T03:13:32;101694.94;;;12.77;84.26
56070;BME280;41944;52.078;-0.058;2023-02-18T03:16:13;101688.34;;;12.76;84.36
56070;BME280;41944;52.078;-0.058;2023-02-18T03:18:45;101674.69;;;12.62;84.32
56070;BME280;41944;52.078;-0.058;2023-02-18T03:21:20;101680.67;;;12.64;84.32
56070;BME280;41944;52.078;-0.058;2023-02-18T03:23:54;101676.65;;;12.60;84.25
56070;BME280;41944;52.078;-0.058;2023-02-18T03:26:23;101675.82;;;12.57;84.49
56070;BME280;41944;52.078;-0.058;2023-02-18T03:28:52;101668.99;;;12.47;84.09
56070;BME280;41944;52.078;-0.058;2023-02-18T03:31:25;101667.43;;;12.45;83.58
56070;BME280;41944;52.078;-0.058;2023-02-18T03:33:58;101668.46;;;12.43;84.21
56070;BME280;41944;52.078;-0.058;2023-02-18T03:36:28;101662.49;;;12.37;83.78
56070;BME280;41944;52.078;-0.058;2023-02-18T03:38:58;101663.55;;;12.29;84.69
56070;BME280;41944;52.078;-0.058;2023-02-18T03:41:26;101665.06;;;12.41;83.76
56070;BME280;41944;52.078;-0.058;2023-02-18T03:44:00;101660.81;;;12.34;84.38
56070;BME280;41944;52.078;-0.058;2023-02-18T03:46:28;101654.98;;;12.35;83.46
56070;BME280;41944;52.078;-0.058;2023-02-18T03:48:55;101662.29;;;12.31;84.08
56070;BME280;41944;52.078;-0.058;2023-02-18T03:51:23;101648.64;;;12.37;83.67
56070;BME280;41944;52.078;-0.058;2023-02-18T03:53:50;101643.15;;;12.36;83.22
56070;BME280;41944;52.078;-0.058;2023-02-18T03:56:17;101640.65;;;12.29;82.37
56070;BME280;41944;52.078;-0.058;2023-02-18T03:58:45;101627.93;;;12.24;82.65
56070;BME280;41944;52.078;-0.058;2023-02-18T04:01:12;101614.97;;;12.21;82.19
56070;BME280;41944;52.078;-0.058;2023-02-18T04:03:39;101612.33;;;12.24;81.81
56070;BME280;41944;52.078;-0.058;2023-02-18T04:06:07;101615.11;;;12.17;82.57
56070;BME280;41944;52.078;-0.058;2023-02-18T04:08:34;101615.19;;;12.13;82.35
56070;BME280;41944;52.078;-0.058;2023-02-18T04:11:01;101613.04;;;12.07;82.18
56070;BME280;41944;52.078;-0.058;2023-02-18T04:13:28;101614.43;;;12.11;82.25
56070;BME280;41944;52.078;-0.058;2023-02-18T04:15:54;101605.36;;;12.14;81.44
56070;BME280;41944;52.078;-0.058;2023-02-18T04:18:21;101595.42;;;12.10;82.27
56070;BME280;41944;52.078;-0.058;2023-02-18T04:20:48;101600.14;;;12.12;81.87
56070;BME280;41944;52.078;-0.058;2023-02-18T04:23:15;101605.52;;;12.21;80.56
56070;BME280;41944;52.078;-0.058;2023-02-18T04:25:42;101621.87;;;12.17;81.66
56070;BME280;41944;52.078;-0.058;2023-02-18T04:28:09;101623.48;;;12.18;80.79
56070;BME280;41944;52.078;-0.058;2023-02-18T04:30:38;101617.16;;;12.16;80.87
56070;BME280;41944;52.078;-0.058;2023-02-18T04:33:05;101629.96;;;12.15;80.56
56070;BME280;41944;52.078;-0.058;2023-02-18T04:35:32;101627.90;;;12.12;80.60
56070;BME280;41944;52.078;-0.058;2023-02-18T04:37:59;101619.84;;;12.06;81.64
56070;BME280;41944;52.078;-0.058;2023-02-18T04:40:26;101616.18;;;12.15;80.14
56070;BME280;41944;52.078;-0.058;2023-02-18T04:42:52;101624.26;;;12.19;80.58
56070;BME280;41944;52.078;-0.058;2023-02-18T04:45:19;101621.55;;;12.12;80.38
56070;BME280;41944;52.078;-0.058;2023-02-18T04:47:46;101618.69;;;12.17;80.39
56070;BME280;41944;52.078;-0.058;2023-02-18T04:50:13;101617.71;;;12.18;80.10
56070;BME280;41944;52.078;-0.058;2023-02-18T04:52:41;101611.93;;;12.21;80.08
56070;BME280;41944;52.078;-0.058;2023-02-18T04:55:08;101603.81;;;12.17;79.43
56070;BME280;41944;52.078;-0.058;2023-02-18T04:57:35;101603.82;;;12.15;80.00
56070;BME280;41944;52.078;-0.058;2023-02-18T05:00:03;101607.22;;;12.05;81.23
56070;BME280;41944;52.078;-0.058;2023-02-18T05:02:30;101600.11;;;12.08;81.17
56070;BME280;41944;52.078;-0.058;2023-02-18T05:04:57;101602.99;;;12.13;80.80
56070;BME280;41944;52.078;-0.058;2023-02-18T05:07:24;101611.33;;;12.10;80.74
56070;BME280;41944;52.078;-0.058;2023-02-18T05:09:52;101603.31;;;12.09;81.66
56070;BME280;41944;52.078;-0.058;2023-02-18T05:12:19;101599.59;;;12.04;81.50
56070;BME280;41944;52.078;-0.058;2023-02-18T05:14:46;101611.47;;;12.11;80.76
56070;BME280;41944;52.078;-0.058;2023-02-18T05:17:13;101601.00;;;12.08;81.55
56070;BME280;41944;52.078;-0.058;2023-02-18T05:19:40;101607.58;;;12.01;82.25
56070;BME280;41944;52.078;-0.058;2023-02-18T05:22:07;101602.06;;;12.00;81.94
56070;BME280;41944;52.078;-0.058;2023-02-18T05:24:34;101604.19;;;11.93;82.77
56070;BME280;41944;52.078;-0.058;2023-02-18T05:27:01;101604.87;;;11.90;83.18
56070;BME280;41944;52.078;-0.058;2023-02-18T05:29:28;101591.45;;;12.06;83.01
56070;BME280;41944;52.078;-0.058;2023-02-18T05:31:55;101585.90;;;12.03;83.42
56070;BME280;41944;52.078;-0.058;2023-02-18T05:34:22;101580.72;;;12.20;83.40
56070;BME280;41944;52.078;-0.058;2023-02-18T05:36:49;101577.65;;;12.20;83.64
56070;BME280;41944;52.078;-0.058;2023-02-18T05:39:16;101576.35;;;12.25;83.87
56070;BME280;41944;52.078;-0.058;2023-02-18T05:41:43;101571.94;;;12.26;84.59
56070;BME280;41944;52.078;-0.058;2023-02-18T05:44:09;101570.63;;;12.29;84.88
56070;BME280;41944;52.078;-0.058;2023-02-18T05:46:36;101568.46;;;12.24;85.32
56070;BME280;41944;52.078;-0.058;2023-02-18T05:49:03;101573.69;;;12.28;85.75
56070;BME280;41944;52.078;-0.058;2023-02-18T05:51:30;101565.39;;;12.23;86.32
56070;BME280;41944;52.078;-0.058;2023-02-18T05:53:57;101574.28;;;12.35;86.13
56070;BME280;41944;52.078;-0.058;2023-02-18T05:56:24;101574.76;;;12.28;86.81
56070;BME280;41944;52.078;-0.058;2023-02-18T05:58:51;101572.58;;;12.38;86.67
56070;BME280;41944;52.078;-0.058;2023-02-18T06:01:17;101577.60;;;12.43;86.50
56070;BME280;41944;52.078;-0.058;2023-02-18T06:03:44;101573.89;;;12.45;86.57
56070;BME280;41944;52.078;-0.058;2023-02-18T06:06:12;101584.15;;;12.43;87.06
56070;BME280;41944;52.078;-0.058;2023-02-18T06:08:39;101584.32;;;12.42;87.47
56070;BME280;41944;52.078;-0.058;2023-02-18T06:11:06;101586.05;;;12.47;87.29
56070;BME280;41944;52.078;-0.058;2023-02-18T06:13:33;101578.91;;;12.56;87.03
56070;BME280;41944;52.078;-0.058;2023-02-18T06:16:00;101587.23;;;12.60;86.92
56070;BME280;41944;52.078;-0.058;2023-02-18T06:18:26;101583.69;;;12.56;87.49
56070;BME280;41944;52.078;-0.058;2023-02-18T06:20:54;101585.31;;;12.60;87.57
56070;BME280;41944;52.078;-0.058;2023-02-18T06:23:21;101592.36;;;12.61;87.58
56070;BME280;41944;52.078;-0.058;2023-02-18T06:25:48;101591.41;;;12.59;87.74
56070;BME280;41944;52.078;-0.058;2023-02-18T06:28:16;101599.51;;;12.62;87.89
56070;BME280;41944;52.078;-0.058;2023-02-18T06:30:44;101593.96;;;12.62;87.95
56070;BME280;41944;52.078;-0.058;2023-02-18T06:33:12;101589.59;;;12.70;87.78
56070;BME280;41944;52.078;-0.058;2023-02-18T06:35:39;101578.99;;;12.73;87.49
56070;BME280;41944;52.078;-0.058;2023-02-18T06:38:07;101586.61;;;12.67;87.79
56070;BME280;41944;52.078;-0.058;2023-02-18T06:40:33;101578.78;;;12.63;88.31
56070;BME280;41944;52.078;-0.058;2023-02-18T06:43:00;101579.96;;;12.68;88.25
56070;BME280;41944;52.078;-0.058;2023-02-18T06:45:27;101567.59;;;12.70;88.16
56070;BME280;41944;52.078;-0.058;2023-02-18T06:47:54;101563.92;;;12.66;88.51
56070;BME280;41944;52.078;-0.058;2023-02-18T06:50:21;101566.04;;;12.66;88.53
56070;BME280;41944;52.078;-0.058;2023-02-18T06:52:48;101562.17;;;12.65;88.65
56070;BME280;41944;52.078;-0.058;2023-02-18T06:55:15;101562.72;;;12.60;89.13
56070;BME280;41944;52.078;-0.058;2023-02-18T06:57:42;101573.42;;;12.67;88.65
56070;BME280;41944;52.078;-0.058;2023-02-18T07:00:09;101562.55;;;12.61;88.96
56070;BME280;41944;52.078;-0.058;2023-02-18T07:02:37;101570.88;;;12.58;89.30
56070;BME280;41944;52.078;-0.058;2023-02-18T07:05:04;101576.37;;;12.51;89.65
56070;BME280;41944;52.078;-0.058;2023-02-18T07:07:31;101586.48;;;12.53;89.66
56070;BME280;41944;52.078;-0.058;2023-02-18T07:09:58;101588.33;;;12.59;89.47
56070;BME280;41944;52.078;-0.058;2023-02-18T07:12:25;101584.08;;;12.62;89.26
56070;BME280;41944;52.078;-0.058;2023-02-18T07:14:52;101567.86;;;12.64;89.05
56070;BME280;41944;52.078;-0.058;2023-02-18T07:17:19;101565.80;;;12.62;89.14
56070;BME280;41944;52.078;-0.058;2023-02-18T07:19:45;101570.79;;;12.65;89.00
56070;BME280;41944;52.078;-0.058;2023-02-18T07:22:13;101570.04;;;12.55;89.59
56070;BME280;41944;52.078;-0.058;2023-02-18T07:24:40;101577.52;;;12.59;89.51
56070;BME280;41944;52.078;-0.058;2023-02-18T07:27:07;101572.31;;;12.56;89.66
56070;BME280;41944;52.078;-0.058;2023-02-18T07:29:34;101575.37;;;12.53;89.95
56070;BME280;41944;52.078;-0.058;2023-02-18T07:32:01;101576.72;;;12.52;89.89
56070;BME280;41944;52.078;-0.058;2023-02-18T07:34:28;101588.17;;;12.58;89.85
56070;BME280;41944;52.078;-0.058;2023-02-18T07:36:54;101585.83;;;12.60;89.79
56070;BME280;41944;52.078;-0.058;2023-02-18T07:39:21;101591.16;;;12.65;89.77
56070;BME280;41944;52.078;-0.058;2023-02-18T07:41:48;101581.70;;;12.60;89.87
56070;BME280;41944;52.078;-0.058;2023-02-18T07:44:15;101585.68;;;12.64;89.69
56070;BME280;41944;52.078;-0.058;2023-02-18T07:46:42;101577.71;;;12.61;89.94
56070;BME280;41944;52.078;-0.058;2023-02-18T07:49:09;101584.72;;;12.65;89.71
56070;BME280;41944;52.078;-0.058;2023-02-18T07:51:36;101589.41;;;12.66;89.66
56070;BME280;41944;52.078;-0.058;2023-02-18T07:54:03;101595.73;;;12.63;89.94
56070;BME280;41944;52.078;-0.058;2023-02-18T07:56:30;101597.10;;;12.65;89.97
56070;BME280;41944;52.078;-0.058;2023-02-18T07:58:57;101599.15;;;12.68;89.96
56070;BME280;41944;52.078;-0.058;2023-02-18T08:01:24;101601.08;;;12.70;89.90
56070;BME280;41944;52.078;-0.058;2023-02-18T08:03:51;101609.29;;;12.69;90.09
56070;BME280;41944;52.078;-0.058;2023-02-18T08:06:21;101616.80;;;12.70;90.34
56070;BME280;41944;52.078;-0.058;2023-02-18T08:08:51;101610.60;;;12.81;89.51
56070;BME280;41944;52.078;-0.058;2023-02-18T08:11:17;101614.68;;;12.75;89.74
56070;BME280;41944;52.078;-0.058;2023-02-18T08:13:44;101619.70;;;12.74;89.96
56070;BME280;41944;52.078;-0.058;2023-02-18T08:16:12;101609.12;;;12.70;90.33
56070;BME280;41944;52.078;-0.058;2023-02-18T08:18:39;101602.29;;;12.74;90.28
56070;BME280;41944;52.078;-0.058;2023-02-18T08:21:06;101609.18;;;12.81;90.00
56070;BME280;41944;52.078;-0.058;2023-02-18T08:23:33;101615.37;;;12.86;89.99
56070;BME280;41944;52.078;-0.058;2023-02-18T08:26:00;101623.62;;;12.93;89.63
56070;BME280;41944;52.078;-0.058;2023-02-18T08:28:26;101630.54;;;12.99;89.92
56070;BME280;41944;52.078;-0.058;2023-02-18T08:30:53;101642.18;;;13.03;89.57
56070;BME280;41944;52.078;-0.058;2023-02-18T08:33:22;101644.47;;;13.07;89.78
56070;BME280;41944;52.078;-0.058;2023-02-18T08:35:51;101637.39;;;13.14;89.73
56070;BME280;41944;52.078;-0.058;2023-02-18T08:38:18;101631.55;;;13.15;89.49
56070;BME280;41944;52.078;-0.058;2023-02-18T08:40:46;101634.78;;;13.15;89.75
56070;BME280;41944;52.078;-0.058;2023-02-18T08:43:16;101641.15;;;13.20;89.63
56070;BME280;41944;52.078;-0.058;2023-02-18T08:45:43;101648.20;;;13.17;89.62
56070;BME280;41944;52.078;-0.058;2023-02-18T08:48:12;101652.40;;;13.15;89.91
56070;BME280;41944;52.078;-0.058;2023-02-18T08:50:40;101652.08;;;13.15;90.12
56070;BME280;41944;52.078;-0.058;2023-02-18T08:53:07;101652.48;;;13.16;90.15
56070;BME280;41944;52.078;-0.058;2023-02-18T08:55:34;101660.57;;;13.11;90.46
56070;BME280;41944;52.078;-0.058;2023-02-18T08:58:03;101668.39;;;13.09;91.08
56070;BME280;41944;52.078;-0.058;2023-02-18T09:00:31;101673.21;;;13.18;90.55
56070;BME280;41944;52.078;-0.058;2023-02-18T09:02:58;101675.88;;;13.25;90.15
56070;BME280;41944;52.078;-0.058;2023-02-18T09:05:25;101678.12;;;13.21;90.48
56070;BME280;41944;52.078;-0.058;2023-02-18T09:07:52;101672.44;;;13.36;89.62
56070;BME280;41944;52.078;-0.058;2023-02-18T09:10:19;101677.57;;;13.32;89.66
56070;BME280;41944;52.078;-0.058;2023-02-18T09:12:46;101674.72;;;13.36;90.00
56070;BME280;41944;52.078;-0.058;2023-02-18T09:15:14;101668.69;;;13.47;89.20
56070;BME280;41944;52.078;-0.058;2023-02-18T09:17:41;101668.76;;;13.50;89.34
56070;BME280;41944;52.078;-0.058;2023-02-18T09:20:08;101667.05;;;13.56;88.74
56070;BME280;41944;52.078;-0.058;2023-02-18T09:22:35;101663.65;;;13.69;87.94
56070;BME280;41944;52.078;-0.058;2023-02-18T09:25:03;101661.03;;;13.68;88.23
56070;BME280;41944;52.078;-0.058;2023-02-18T09:27:30;101662.67;;;13.72;87.88
56070;BME280;41944;52.078;-0.058;2023-02-18T09:29:57;101672.11;;;13.79;87.84
56070;BME280;41944;52.078;-0.058;2023-02-18T09:32:24;101682.19;;;13.79;87.72
56070;BME280;41944;52.078;-0.058;2023-02-18T09:34:51;101668.01;;;13.90;87.26
56070;BME280;41944;52.078;-0.058;2023-02-18T09:37:18;101664.20;;;13.91;86.87
56070;BME280;41944;52.078;-0.058;2023-02-18T09:39:44;101660.71;;;13.96;86.75
56070;BME280;41944;52.078;-0.058;2023-02-18T09:42:14;101665.95;;;13.97;86.51
56070;BME280;41944;52.078;-0.058;2023-02-18T09:44:46;101671.28;;;14.03;85.91
56070;BME280;41944;52.078;-0.058;2023-02-18T09:47:18;101678.86;;;14.04;85.54
56070;BME280;41944;52.078;-0.058;2023-02-18T09:49:51;101675.13;;;14.05;86.14
56070;BME280;41944;52.078;-0.058;2023-02-18T09:52:21;101671.73;;;14.11;85.29
56070;BME280;41944;52.078;-0.058;2023-02-18T09:54:50;101675.39;;;14.14;85.26
56070;BME280;41944;52.078;-0.058;2023-02-18T09:57:23;101675.48;;;14.15;85.31
56070;BME280;41944;52.078;-0.058;2023-02-18T09:59:56;101683.40;;;14.19;85.21
56070;BME280;41944;52.078;-0.058;2023-02-18T10:02:26;101694.77;;;14.24;84.63
56070;BME280;41944;52.078;-0.058;2023-02-18T10:04:54;101696.14;;;14.31;84.47
56070;BME280;41944;52.078;-0.058;2023-02-18T10:07:26;101697.64;;;14.40;84.15
56070;BME280;41944;52.078;-0.058;2023-02-18T10:09:56;101696.74;;;14.48;83.65
56070;BME280;41944;52.078;-0.058;2023-02-18T10:12:25;101708.55;;;14.52;83.47
56070;BME280;41944;52.078;-0.058;2023-02-18T10:14:54;101703.33;;;14.52;83.24
56070;BME280;41944;52.078;-0.058;2023-02-18T10:17:24;101709.36;;;14.56;83.11
56070;BME280;41944;52.078;-0.058;2023-02-18T10:19:53;101714.53;;;14.56;83.42
56070;BME280;41944;52.078;-0.058;2023-02-18T10:22:23;101720.14;;;14.53;83.66
56070;BME280;41944;52.078;-0.058;2023-02-18T10:24:53;101715.39;;;14.46;84.19
56070;BME280;41944;52.078;-0.058;2023-02-18T10:27:24;101720.32;;;14.50;84.24
56070;BME280;41944;52.078;-0.058;2023-02-18T10:29:52;101715.12;;;14.49;84.59
56070;BME280;41944;52.078;-0.058;2023-02-18T10:32:22;101717.68;;;14.51;85.72
56070;BME280;41944;52.078;-0.058;2023-02-18T10:34:53;101716.46;;;14.38;87.18
56070;BME280;41944;52.078;-0.058;2023-02-18T10:37:37;101723.29;;;14.39;88.14
56070;BME280;41944;52.078;-0.058;2023-02-18T10:40:13;101719.90;;;14.43;87.11
56070;BME280;41944;52.078;-0.058;2023-02-18T10:42:52;101720.67;;;14.48;86.19
56070;BME280;41944;52.078;-0.058;2023-02-18T10:45:32;101722.93;;;14.51;86.63
56070;BME280;41944;52.078;-0.058;2023-02-18T10:48:17;101732.48;;;14.54;86.95
56070;BME280;41944;52.078;-0.058;2023-02-18T10:50:47;101736.05;;;14.68;85.74
56070;BME280;41944;52.078;-0.058;2023-02-18T10:53:18;101740.96;;;14.75;86.01
56070;BME280;41944;52.078;-0.058;2023-02-18T10:55:46;101743.00;;;14.86;84.86
56070;BME280;41944;52.078;-0.058;2023-02-18T10:58:31;101744.92;;;14.91;84.58
56070;BME280;41944;52.078;-0.058;2023-02-18T11:01:00;101743.21;;;14.96;84.08
56070;BME280;41944;52.078;-0.058;2023-02-18T11:03:39;101746.06;;;14.97;84.30
56070;BME280;41944;52.078;-0.058;2023-02-18T11:06:16;101750.21;;;14.93;84.95
56070;BME280;41944;52.078;-0.058;2023-02-18T11:08:46;101755.96;;;14.94;86.27
56070;BME280;41944;52.078;-0.058;2023-02-18T11:11:16;101754.41;;;14.87;87.62
56070;BME280;41944;52.078;-0.058;2023-02-18T11:13:51;101753.01;;;14.73;87.43
56070;BME280;41944;52.078;-0.058;2023-02-18T11:16:21;101760.34;;;14.71;88.31
56070;BME280;41944;52.078;-0.058;2023-02-18T11:18:49;101759.45;;;14.65;90.27
56070;BME280;41944;52.078;-0.058;2023-02-18T11:21:25;101757.71;;;14.55;92.37
56070;BME280;41944;52.078;-0.058;2023-02-18T11:23:55;101759.02;;;14.53;94.15
56070;BME280;41944;52.078;-0.058;2023-02-18T11:26:27;101763.18;;;14.51;94.83
56070;BME280;41944;52.078;-0.058;2023-02-18T11:29:00;101766.17;;;14.55;95.72
56070;BME280;41944;52.078;-0.058;2023-02-18T11:31:38;101765.85;;;14.54;95.90
56070;BME280;41944;52.078;-0.058;2023-02-18T11:34:14;101768.87;;;14.43;97.22
56070;BME280;41944;52.078;-0.058;2023-02-18T11:36:42;101759.88;;;14.44;95.57
56070;BME280;41944;52.078;-0.058;2023-02-18T11:39:17;101759.04;;;14.36;97.22
56070;BME280;41944;52.078;-0.058;2023-02-18T11:41:47;101761.27;;;14.27;98.50
56070;BME280;41944;52.078;-0.058;2023-02-18T11:44:20;101749.83;;;14.39;96.32
56070;BME280;41944;52.078;-0.058;2023-02-18T11:46:58;101750.85;;;14.38;97.19
56070;BME280;41944;52.078;-0.058;2023-02-18T11:49:25;101751.67;;;14.24;100.00
56070;BME280;41944;52.078;-0.058;2023-02-18T11:51:52;101752.44;;;14.14;100.00
56070;BME280;41944;52.078;-0.058;2023-02-18T11:54:25;101750.27;;;14.00;100.00
56070;BME280;41944;52.078;-0.058;2023-02-18T11:56:56;101751.92;;;14.26;100.00
56070;BME280;41944;52.078;-0.058;2023-02-18T11:59:24;101752.93;;;14.41;100.00
56070;BME280;41944;52.078;-0.058;2023-02-18T12:01:55;101758.90;;;14.44;100.00
56070;BME280;41944;52.078;-0.058;2023-02-18T12:04:28;101757.46;;;14.48;99.74
56070;BME280;41944;52.078;-0.058;2023-02-18T12:07:16;101754.35;;;14.41;100.00
56070;BME280;41944;52.078;-0.058;2023-02-18T12:09:48;101745.20;;;14.50;98.91
56070;BME280;41944;52.078;-0.058;2023-02-18T12:12:24;101739.19;;;14.58;97.51
56070;BME280;41944;52.078;-0.058;2023-02-18T12:14:54;101740.27;;;14.59;98.05
56070;BME280;41944;52.078;-0.058;2023-02-18T12:17:34;101732.47;;;14.67;96.09
56070;BME280;41944;52.078;-0.058;2023-02-18T12:20:18;101723.53;;;14.58;96.58
56070;BME280;41944;52.078;-0.058;2023-02-18T12:22:56;101721.38;;;14.57;97.67
56070;BME280;41944;52.078;-0.058;2023-02-18T12:25:35;101716.78;;;14.41;99.97
56070;BME280;41944;52.078;-0.058;2023-02-18T12:28:20;101713.78;;;14.56;100.00
56070;BME280;41944;52.078;-0.058;2023-02-18T12:31:06;101712.10;;;14.85;97.25
56070;BME280;41944;52.078;-0.058;2023-02-18T12:33:45;101709.94;;;15.00;97.09
56070;BME280;41944;52.078;-0.058;2023-02-18T12:36:27;101708.23;;;15.21;96.81
56070;BME280;41944;52.078;-0.058;2023-02-18T12:39:05;101703.97;;;15.44;95.06
56070;BME280;41944;52.078;-0.058;2023-02-18T12:41:47;101697.61;;;15.68;95.49
56070;BME280;41944;52.078;-0.058;2023-02-18T12:44:29;101701.12;;;15.98;92.12
56070;BME280;41944;52.078;-0.058;2023-02-18T12:47:12;101698.08;;;16.19;88.33
56070;BME280;41944;52.078;-0.058;2023-02-18T12:49:55;101701.29;;;16.17;90.36
56070;BME280;41944;52.078;-0.058;2023-02-18T12:52:34;101706.99;;;16.19;86.21